createdAt,value
2023-04-25T00:01:39.426Z,36.41
2023-04-25T00:04:09.109Z,36.34
2023-04-25T00:06:37.145Z,36.15
2023-04-25T00:09:10.019Z,36.21
2023-04-25T00:11:36.405Z,36.22
2023-04-25T00:14:03.441Z,36.17
2023-04-25T00:16:31.673Z,36.24
2023-04-25T00:18:59.646Z,36.28
2023-04-25T00:21:26.493Z,36.00
2023-04-25T00:23:56.119Z,36.32
2023-04-25T00:26:22.444Z,36.19
2023-04-25T00:28:48.928Z,36.35
2023-04-25T00:31:15.386Z,36.20
2023-04-25T00:33:41.708Z,36.24
2023-04-25T00:36:08.227Z,36.19
2023-04-25T00:38:34.536Z,36.12
2023-04-25T00:41:00.840Z,36.21
2023-04-25T00:43:27.355Z,36.22
2023-04-25T00:45:53.725Z,36.32
2023-04-25T00:48:21.872Z,36.09
2023-04-25T00:50:51.475Z,36.25
2023-04-25T00:53:17.800Z,36.10
2023-04-25T00:55:44.124Z,36.16
2023-04-25T00:58:10.429Z,36.09
2023-04-25T01:00:36.749Z,36.09
2023-04-25T01:03:03.731Z,36.06
2023-04-25T01:05:32.494Z,35.95
2023-04-25T01:07:58.796Z,36.05
2023-04-25T01:10:25.146Z,36.06
2023-04-25T01:12:53.036Z,35.99
2023-04-25T01:15:21.247Z,35.88
2023-04-25T01:17:48.321Z,35.95
2023-04-25T01:20:14.681Z,35.99
2023-04-25T01:22:41.228Z,35.92
2023-04-25T01:25:07.915Z,35.87
2023-04-25T01:27:34.239Z,35.74
2023-04-25T01:30:00.742Z,35.99
2023-04-25T01:32:27.399Z,35.88
2023-04-25T01:34:53.737Z,36.14
2023-04-25T01:37:20.284Z,36.02
2023-04-25T01:39:46.716Z,35.97
2023-04-25T01:42:13.573Z,36.14
2023-04-25T01:44:39.893Z,36.11
2023-04-25T01:47:06.313Z,35.72
2023-04-25T01:49:32.697Z,36.00
2023-04-25T01:51:59.032Z,36.09
2023-04-25T01:54:25.439Z,36.04
2023-04-25T01:56:52.148Z,35.76
2023-04-25T01:59:19.167Z,35.94
2023-04-25T02:01:45.668Z,35.69
2023-04-25T02:04:12.175Z,35.83
2023-04-25T02:06:38.608Z,35.32
2023-04-25T02:09:04.923Z,35.39
2023-04-25T02:11:31.248Z,35.22
2023-04-25T02:13:57.564Z,35.05
2023-04-25T02:16:24.415Z,34.95
2023-04-25T02:18:53.655Z,34.72
2023-04-25T02:21:20.027Z,34.69
2023-04-25T02:23:49.936Z,34.57
2023-04-25T02:26:16.707Z,34.77
2023-04-25T02:28:43.025Z,34.70
2023-04-25T02:31:09.429Z,34.48
2023-04-25T02:33:35.958Z,34.75
2023-04-25T02:36:02.285Z,34.98
2023-04-25T02:38:28.618Z,34.83
2023-04-25T02:40:54.948Z,34.34
2023-04-25T02:43:21.999Z,34.14
2023-04-25T02:45:48.660Z,34.14
2023-04-25T02:48:15.616Z,33.98
2023-04-25T02:50:41.992Z,34.03
2023-04-25T02:53:08.304Z,34.02
2023-04-25T02:55:34.677Z,34.19
2023-04-25T02:58:01.325Z,34.10
2023-04-25T03:00:27.948Z,34.22
2023-04-25T03:02:56.950Z,34.20
2023-04-25T03:05:23.341Z,34.36
2023-04-25T03:07:49.682Z,34.32
2023-04-25T03:10:16.261Z,34.39
2023-04-25T03:12:47.159Z,34.31
2023-04-25T03:15:13.486Z,34.36
2023-04-25T03:17:39.867Z,34.36
2023-04-25T03:20:06.549Z,34.30
2023-04-25T03:22:32.877Z,34.57
2023-04-25T03:24:59.189Z,34.63
2023-04-25T03:27:26.679Z,34.65
2023-04-25T03:29:53.002Z,34.68
2023-04-25T03:32:19.405Z,34.62
2023-04-25T03:34:45.839Z,34.57
2023-04-25T03:37:12.347Z,34.25
2023-04-25T03:39:39.397Z,34.37
2023-04-25T03:42:05.733Z,34.39
2023-04-25T03:44:32.062Z,34.41
2023-04-25T03:46:58.727Z,34.32
2023-04-25T03:49:25.601Z,34.42
2023-04-25T03:51:51.971Z,34.35
2023-04-25T03:54:18.373Z,34.25
2023-04-25T03:56:44.779Z,34.16
2023-04-25T03:59:11.094Z,34.10
2023-04-25T04:01:37.436Z,34.21
2023-04-25T04:04:03.875Z,33.83
2023-04-25T04:06:30.470Z,33.77
2023-04-25T04:08:57.637Z,33.82
2023-04-25T04:11:23.958Z,33.68
2023-04-25T04:13:50.567Z,33.79
2023-04-25T04:16:18.067Z,33.79
2023-04-25T04:18:44.636Z,33.76
2023-04-25T04:21:10.963Z,33.77
2023-04-25T04:23:39.693Z,34.09
2023-04-25T04:26:06.319Z,34.18
2023-04-25T04:28:32.709Z,33.89
2023-04-25T04:31:01.984Z,34.04
2023-04-25T04:33:31.233Z,33.93
2023-04-25T04:35:57.777Z,33.78
2023-04-25T04:38:24.893Z,33.89
2023-04-25T04:40:51.321Z,33.95
2023-04-25T04:43:18.091Z,34.01
2023-04-25T04:45:45.502Z,34.04
2023-04-25T04:48:14.971Z,33.85
2023-04-25T04:50:42.014Z,33.96
2023-04-25T04:53:08.339Z,34.08
2023-04-25T04:55:34.661Z,34.07
2023-04-25T04:58:01.097Z,33.99
2023-04-25T05:00:29.660Z,34.01
2023-04-25T05:02:56.696Z,34.17
2023-04-25T05:05:23.427Z,33.99
2023-04-25T05:07:49.751Z,34.23
2023-04-25T05:10:16.266Z,34.26
2023-04-25T05:12:42.599Z,33.90
2023-04-25T05:15:08.968Z,33.81
2023-04-25T05:17:35.546Z,33.74
2023-04-25T05:20:02.657Z,33.58
2023-04-25T05:22:28.976Z,33.70
2023-04-25T05:24:57.682Z,33.65
2023-04-25T05:27:24.522Z,33.62
2023-04-25T05:29:50.839Z,33.65
2023-04-25T05:32:18.059Z,33.74
2023-04-25T05:34:44.478Z,33.67
2023-04-25T05:37:10.938Z,33.70
2023-04-25T05:39:37.321Z,33.74
2023-04-25T05:42:04.800Z,33.72
2023-04-25T05:44:31.344Z,33.65
2023-04-25T05:46:58.990Z,33.62
2023-04-25T05:49:25.305Z,33.55
2023-04-25T05:51:51.633Z,33.65
2023-04-25T05:54:18.363Z,33.54
2023-04-25T05:56:44.694Z,33.58
2023-04-25T05:59:11.022Z,33.72
2023-04-25T06:01:37.422Z,33.62
2023-04-25T06:04:03.977Z,33.51
2023-04-25T06:06:31.131Z,33.58
2023-04-25T06:08:57.442Z,33.52
2023-04-25T06:11:23.752Z,33.32
2023-04-25T06:13:50.556Z,33.64
2023-04-25T06:16:17.167Z,33.48
2023-04-25T06:18:43.606Z,33.29
2023-04-25T06:21:10.002Z,33.54
2023-04-25T06:23:36.409Z,33.72
2023-04-25T06:26:02.720Z,33.60
2023-04-25T06:28:29.101Z,33.50
2023-04-25T06:30:55.483Z,33.37
2023-04-25T06:33:22.522Z,33.17
2023-04-25T06:35:48.881Z,33.21
2023-04-25T06:38:15.891Z,33.33
2023-04-25T06:40:42.424Z,32.97
2023-04-25T06:43:08.847Z,33.13
2023-04-25T06:45:35.233Z,32.76
2023-04-25T06:48:01.624Z,32.85
2023-04-25T06:50:28.002Z,32.76
2023-04-25T06:52:54.321Z,32.80
2023-04-25T06:55:20.735Z,32.69
2023-04-25T06:57:47.113Z,32.53
2023-04-25T07:00:13.836Z,32.65
2023-04-25T07:02:41.490Z,32.35
2023-04-25T07:05:07.980Z,32.65
2023-04-25T07:07:34.322Z,32.54
2023-04-25T07:10:01.461Z,32.56
2023-04-25T07:12:27.818Z,32.28
2023-04-25T07:14:54.142Z,32.38
2023-04-25T07:17:20.570Z,32.22
2023-04-25T07:19:46.885Z,32.20
2023-04-25T07:22:13.298Z,32.16
2023-04-25T07:24:39.744Z,32.04
2023-04-25T07:27:06.177Z,31.93
2023-04-25T07:29:32.771Z,31.93
2023-04-25T07:31:59.159Z,31.87
2023-04-25T07:34:25.508Z,31.86
2023-04-25T07:36:51.846Z,31.73
2023-04-25T07:39:18.174Z,31.70
2023-04-25T07:41:44.738Z,31.84
2023-04-25T07:44:11.347Z,31.59
2023-04-25T07:46:37.678Z,31.96
2023-04-25T07:49:04.001Z,31.64
2023-04-25T07:51:30.370Z,31.50
2023-04-25T07:53:56.713Z,31.50
2023-04-25T07:56:23.067Z,31.35
2023-04-25T07:58:49.700Z,31.48
2023-04-25T08:01:16.353Z,31.60
2023-04-25T08:03:42.982Z,31.34
2023-04-25T08:06:11.260Z,31.34
2023-04-25T08:08:37.789Z,31.48
2023-04-25T08:11:04.227Z,31.54
2023-04-25T08:13:30.551Z,31.28
2023-04-25T08:15:56.939Z,31.79
2023-04-25T08:18:23.353Z,31.74
2023-04-25T08:20:49.690Z,31.70
2023-04-25T08:23:16.194Z,31.78
2023-04-25T08:25:42.532Z,31.50
2023-04-25T08:28:08.862Z,31.26
2023-04-25T08:30:35.349Z,30.70
2023-04-25T08:33:01.739Z,30.98
2023-04-25T08:35:28.150Z,31.03
2023-04-25T08:37:54.647Z,30.89
2023-04-25T08:40:22.047Z,30.87
2023-04-25T08:42:48.413Z,30.91
2023-04-25T08:45:16.152Z,30.75
2023-04-25T08:47:42.625Z,30.61
2023-04-25T08:50:09.091Z,30.59
2023-04-25T08:52:36.980Z,30.55
2023-04-25T08:55:04.261Z,30.78
2023-04-25T08:57:31.889Z,30.71
2023-04-25T08:59:58.357Z,30.81
2023-04-25T09:02:25.013Z,30.83
2023-04-25T09:04:51.451Z,30.83
2023-04-25T09:07:21.988Z,31.02
2023-04-25T09:09:48.882Z,30.74
2023-04-25T09:12:15.372Z,30.61
2023-04-25T09:14:43.391Z,30.44
2023-04-25T09:17:09.892Z,30.69
2023-04-25T09:19:40.958Z,30.52
2023-04-25T09:22:08.056Z,30.54
2023-04-25T09:24:37.893Z,30.67
2023-04-25T09:27:04.776Z,30.61
2023-04-25T09:29:35.349Z,30.58
2023-04-25T09:32:12.378Z,30.34
2023-04-25T09:34:42.891Z,30.71
2023-04-25T09:37:12.310Z,30.58
2023-04-25T09:39:39.719Z,30.40
2023-04-25T09:42:06.372Z,30.37
2023-04-25T09:44:32.815Z,30.17
2023-04-25T09:47:00.196Z,30.41
2023-04-25T09:49:26.992Z,30.43
2023-04-25T09:51:59.295Z,30.38
2023-04-25T09:54:25.949Z,30.62
2023-04-25T09:56:52.635Z,30.85
2023-04-25T09:59:23.095Z,30.82
2023-04-25T10:01:51.203Z,30.64
2023-04-25T10:04:22.018Z,30.26
2023-04-25T10:06:50.222Z,30.25
2023-04-25T10:09:16.838Z,30.28
2023-04-25T10:11:43.352Z,29.91
2023-04-25T10:14:09.744Z,29.60
2023-04-25T10:16:36.224Z,29.35
2023-04-25T10:19:03.911Z,30.25
2023-04-25T10:21:31.643Z,30.22
2023-04-25T10:23:58.132Z,30.25
2023-04-25T10:26:24.725Z,30.38
2023-04-25T10:28:57.749Z,30.21
2023-04-25T10:31:24.133Z,30.42
2023-04-25T10:33:53.246Z,30.08
2023-04-25T10:36:21.856Z,30.14
2023-04-25T10:38:48.406Z,30.29
2023-04-25T10:41:14.725Z,30.39
2023-04-25T10:43:44.436Z,30.51
2023-04-25T10:46:37.319Z,30.50
2023-04-25T10:49:03.985Z,30.60
2023-04-25T10:51:47.384Z,30.68
2023-04-25T10:54:20.977Z,30.80
2023-04-25T10:56:47.305Z,30.83
2023-04-25T10:59:17.430Z,30.82
2023-04-25T11:01:47.987Z,30.67
2023-04-25T11:04:24.053Z,30.75
2023-04-25T11:09:52.623Z,30.81
2023-04-25T11:12:18.972Z,30.62
2023-04-25T11:14:37.937Z,30.46
2023-04-25T11:14:45.410Z,30.76
2023-04-25T11:17:12.173Z,30.77
2023-04-25T11:19:38.636Z,30.69
2023-04-25T11:22:04.947Z,30.71
2023-04-25T11:24:31.743Z,30.87
2023-04-25T11:27:00.914Z,30.70
2023-04-25T11:29:27.541Z,30.84
2023-04-25T11:31:54.334Z,30.86
2023-04-25T11:34:20.778Z,30.71
2023-04-25T11:36:47.157Z,30.94
2023-04-25T11:39:13.488Z,30.80
2023-04-25T11:41:41.426Z,30.72
2023-04-25T11:44:08.114Z,30.84
2023-04-25T11:46:37.628Z,30.77
2023-04-25T11:49:05.238Z,31.00
2023-04-25T11:51:32.765Z,30.85
2023-04-25T11:53:59.109Z,31.14
2023-04-25T11:56:25.432Z,30.96
2023-04-25T11:58:55.406Z,31.20
2023-04-25T12:01:35.875Z,31.07
2023-04-25T12:04:12.336Z,31.23
2023-04-25T12:06:41.939Z,31.06
2023-04-25T12:09:08.970Z,31.16
2023-04-25T12:11:41.945Z,31.08
2023-04-25T12:14:08.275Z,31.21
2023-04-25T12:16:41.754Z,31.38
2023-04-25T12:19:08.116Z,31.11
2023-04-25T12:21:38.825Z,31.25
2023-04-25T12:24:11.100Z,31.10
2023-04-25T12:26:53.909Z,31.26
2023-04-25T12:29:21.174Z,31.23
2023-04-25T12:31:48.707Z,31.18
2023-04-25T12:34:15.584Z,31.23
2023-04-25T12:36:41.924Z,30.91
2023-04-25T12:39:08.976Z,31.14
2023-04-25T12:41:35.348Z,31.17
2023-04-25T12:44:01.718Z,31.18
2023-04-25T12:46:28.089Z,31.15
2023-04-25T12:48:55.001Z,31.18
2023-04-25T12:51:25.812Z,31.28
2023-04-25T12:53:52.899Z,31.24
2023-04-25T12:56:21.439Z,31.32
2023-04-25T12:58:50.193Z,31.19
2023-04-25T13:01:16.641Z,31.37
2023-04-25T13:03:43.325Z,31.41
2023-04-25T13:06:09.915Z,31.55
2023-04-25T13:08:37.685Z,31.69
2023-04-25T13:11:04.743Z,31.57
2023-04-25T13:13:32.456Z,31.62
2023-04-25T13:15:59.047Z,31.55
2023-04-25T13:18:27.417Z,31.23
2023-04-25T13:20:54.090Z,31.56
2023-04-25T13:23:21.267Z,31.54
2023-04-25T13:25:47.814Z,31.40
2023-04-25T13:28:14.229Z,31.34
2023-04-25T13:30:40.629Z,31.48
2023-04-25T13:33:07.434Z,31.29
2023-04-25T13:35:34.148Z,31.34
2023-04-25T13:38:00.965Z,31.59
2023-04-25T13:40:27.880Z,31.38
2023-04-25T13:42:54.264Z,31.28
2023-04-25T13:45:20.986Z,31.43
2023-04-25T13:47:47.323Z,31.63
2023-04-25T13:50:14.567Z,31.52
2023-04-25T13:52:41.095Z,31.45
2023-04-25T13:55:08.107Z,31.43
2023-04-25T13:57:34.672Z,31.35
2023-04-25T14:00:05.693Z,31.57
2023-04-25T14:02:32.156Z,31.34
2023-04-25T14:04:58.670Z,31.56
2023-04-25T14:07:25.066Z,31.72
2023-04-25T14:09:51.403Z,31.70
2023-04-25T14:12:17.750Z,31.75
2023-04-25T14:14:44.114Z,31.86
2023-04-25T14:17:10.873Z,31.67
2023-04-25T14:19:39.502Z,31.65
2023-04-25T14:22:05.881Z,31.94
2023-04-25T14:24:32.192Z,31.85
2023-04-25T14:26:58.555Z,31.65
2023-04-25T14:29:24.875Z,31.69
2023-04-25T14:31:51.388Z,31.58
2023-04-25T14:34:17.886Z,31.72
2023-04-25T14:36:44.239Z,31.71
2023-04-25T14:39:11.026Z,31.69
2023-04-25T14:41:37.366Z,31.59
2023-04-25T14:44:03.686Z,31.71
2023-04-25T14:46:30.014Z,31.53
2023-04-25T14:48:57.188Z,31.63
2023-04-25T14:51:23.669Z,31.49
2023-04-25T14:53:50.221Z,31.41
2023-04-25T14:56:16.724Z,31.57
2023-04-25T14:58:43.113Z,31.47
2023-04-25T15:01:09.846Z,31.38
2023-04-25T15:03:36.517Z,31.50
2023-04-25T15:06:03.001Z,31.41
2023-04-25T15:08:29.408Z,31.29
2023-04-25T15:10:55.818Z,31.12
2023-04-25T15:13:22.203Z,31.49
2023-04-25T15:15:52.068Z,31.59
2023-04-25T15:18:19.203Z,31.54
2023-04-25T15:20:45.564Z,31.68
2023-04-25T15:23:12.950Z,31.67
2023-04-25T15:25:39.956Z,31.49
2023-04-25T15:28:06.450Z,31.75
2023-04-25T15:30:32.801Z,31.48
2023-04-25T15:32:59.225Z,31.75
2023-04-25T15:35:25.600Z,31.89
2023-04-25T15:37:52.220Z,31.97
2023-04-25T15:40:18.559Z,31.96
2023-04-25T15:42:48.746Z,32.02
2023-04-25T15:45:15.544Z,32.00
2023-04-25T15:47:42.063Z,32.14
2023-04-25T15:50:09.379Z,32.14
2023-04-25T15:52:35.954Z,32.05
2023-04-25T15:55:02.435Z,32.12
2023-04-25T15:57:28.798Z,32.06
2023-04-25T15:59:55.216Z,31.94
2023-04-25T16:02:21.656Z,32.29
2023-04-25T16:04:48.318Z,32.72
2023-04-25T16:07:14.754Z,32.75
2023-04-25T16:09:41.093Z,32.74
2023-04-25T16:12:08.439Z,32.89
2023-04-25T16:14:34.885Z,33.14
2023-04-25T16:17:01.224Z,33.46
2023-04-25T16:19:27.540Z,33.52
2023-04-25T16:21:53.873Z,33.64
2023-04-25T16:24:20.267Z,33.68
2023-04-25T16:26:46.605Z,33.88
2023-04-25T16:29:14.654Z,33.81
2023-04-25T16:31:41.988Z,33.86
2023-04-25T16:34:08.362Z,34.23
2023-04-25T16:36:34.697Z,33.88
2023-04-25T16:39:01.250Z,33.72
2023-04-25T16:41:27.838Z,34.03
2023-04-25T16:43:54.359Z,34.17
2023-04-25T16:46:21.559Z,34.27
2023-04-25T16:48:48.859Z,33.92
2023-04-25T16:51:16.072Z,34.44
2023-04-25T16:53:42.680Z,34.21
2023-04-25T16:56:09.058Z,34.23
2023-04-25T16:58:35.487Z,34.18
2023-04-25T17:01:02.153Z,34.00
2023-04-25T17:03:28.699Z,34.11
2023-04-25T17:05:57.914Z,33.82
2023-04-25T17:08:24.758Z,34.08
2023-04-25T17:10:51.301Z,34.05
2023-04-25T17:13:17.861Z,34.02
2023-04-25T17:15:44.329Z,33.91
2023-04-25T17:18:10.938Z,34.05
2023-04-25T17:20:37.566Z,34.09
2023-04-25T17:23:03.944Z,34.31
2023-04-25T17:25:30.325Z,34.38
2023-04-25T17:27:56.639Z,34.17
2023-04-25T17:30:23.700Z,34.23
2023-04-25T17:32:50.115Z,34.13
2023-04-25T17:35:17.044Z,34.03
2023-04-25T17:37:43.824Z,34.33
2023-04-25T17:40:12.934Z,34.20
2023-04-25T17:42:39.572Z,33.89
2023-04-25T17:45:06.302Z,34.31
2023-04-25T17:47:32.705Z,34.39
2023-04-25T17:49:59.044Z,34.34
2023-04-25T17:52:25.717Z,34.19
2023-04-25T17:54:52.314Z,34.30
2023-04-25T17:57:18.848Z,34.19
2023-04-25T17:59:45.249Z,34.27
2023-04-25T18:02:11.698Z,34.29
2023-04-25T18:04:38.385Z,34.40
2023-04-25T18:07:05.805Z,34.02
2023-04-25T18:09:32.405Z,33.95
2023-04-25T18:11:58.748Z,34.12
2023-04-25T18:14:25.394Z,34.29
2023-04-25T18:16:52.734Z,34.27
2023-04-25T18:19:21.597Z,34.15
2023-04-25T18:21:51.926Z,33.78
2023-04-25T18:24:18.301Z,33.56
2023-04-25T18:26:45.012Z,33.30
2023-04-25T18:29:18.948Z,32.77
2023-04-25T18:31:56.282Z,32.81
2023-04-25T18:34:27.293Z,32.43
2023-04-25T18:36:59.787Z,32.41
2023-04-25T18:39:27.017Z,32.18
2023-04-25T18:42:00.062Z,32.13
2023-04-25T18:44:33.616Z,32.07
2023-04-25T18:47:00.238Z,31.68
2023-04-25T18:49:28.349Z,32.02
2023-04-25T18:51:56.172Z,31.42
2023-04-25T18:54:22.736Z,31.49
2023-04-25T18:56:49.074Z,31.22
2023-04-25T18:59:17.035Z,31.31
2023-04-25T19:01:43.602Z,31.19
2023-04-25T19:04:10.161Z,31.12
2023-04-25T19:06:36.615Z,30.90
2023-04-25T19:09:04.220Z,30.84
2023-04-25T19:11:30.709Z,30.92
2023-04-25T19:13:57.410Z,31.00
2023-04-25T19:16:25.997Z,30.83
2023-04-25T19:18:53.531Z,30.97
2023-04-25T19:21:20.064Z,30.77
2023-04-25T19:23:48.466Z,31.03
2023-04-25T19:26:14.833Z,31.04
2023-04-25T19:28:42.812Z,31.12
2023-04-25T19:31:09.194Z,31.21
2023-04-25T19:33:35.572Z,31.08
2023-04-25T19:36:02.139Z,31.29
2023-04-25T19:38:28.937Z,31.17
2023-04-25T19:40:55.244Z,31.17
2023-04-25T19:43:21.972Z,31.85
2023-04-25T19:45:48.386Z,31.92
2023-04-25T19:48:15.289Z,31.84
2023-04-25T19:50:41.800Z,31.70
2023-04-25T19:53:09.271Z,31.63
2023-04-25T19:55:35.725Z,31.75
2023-04-25T19:58:03.263Z,31.92
2023-04-25T20:00:29.581Z,31.99
2023-04-25T20:02:56.661Z,32.08
2023-04-25T20:05:23.529Z,32.28
2023-04-25T20:07:50.409Z,32.24
2023-04-25T20:10:17.379Z,32.18
2023-04-25T20:12:44.063Z,32.57
2023-04-25T20:15:11.444Z,31.96
2023-04-25T20:17:42.336Z,32.15
2023-04-25T20:20:09.912Z,31.68
2023-04-25T20:22:37.069Z,31.68
2023-04-25T20:25:04.444Z,31.60
2023-04-25T20:27:31.411Z,31.75
2023-04-25T20:29:58.714Z,31.95
2023-04-25T20:32:25.057Z,32.26
2023-04-25T20:34:51.598Z,31.63
2023-04-25T20:37:17.946Z,31.43
2023-04-25T20:39:44.273Z,31.36
2023-04-25T20:42:10.663Z,31.31
2023-04-25T20:44:40.868Z,31.45
2023-04-25T20:47:09.434Z,31.26
2023-04-25T20:49:36.494Z,31.52
2023-04-25T20:52:03.065Z,31.53
2023-04-25T20:54:30.955Z,31.86
2023-04-25T20:56:57.629Z,31.72
2023-04-25T20:59:25.316Z,31.94
2023-04-25T21:01:51.708Z,31.74
2023-04-25T21:04:18.075Z,32.28
2023-04-25T21:06:44.465Z,32.10
2023-04-25T21:09:11.026Z,32.23
2023-04-25T21:11:38.306Z,32.16
2023-04-25T21:14:05.434Z,32.69
2023-04-25T21:16:35.130Z,32.60
2023-04-25T21:19:02.253Z,32.32
2023-04-25T21:21:28.570Z,32.28
2023-04-25T21:23:55.380Z,32.46
2023-04-25T21:26:22.116Z,32.21
2023-04-25T21:28:48.440Z,32.37
2023-04-25T21:31:14.927Z,32.52
2023-04-25T21:33:41.388Z,32.47
2023-04-25T21:36:08.114Z,32.47
2023-04-25T21:38:34.500Z,32.79
2023-04-25T21:41:00.851Z,32.31
2023-04-25T21:43:27.187Z,32.14
2023-04-25T21:46:18.962Z,32.59
2023-04-25T21:48:39.911Z,32.46
2023-04-25T21:51:06.241Z,32.04
2023-04-25T21:53:32.851Z,32.49
2023-04-25T21:55:59.186Z,32.81
2023-04-25T21:58:25.524Z,32.88
2023-04-25T22:00:51.909Z,32.76
2023-04-25T22:03:20.295Z,32.96
2023-04-25T22:05:46.987Z,32.71
2023-04-25T22:08:14.185Z,32.53
2023-04-25T22:10:40.549Z,32.75
2023-04-25T22:13:06.931Z,33.13
2023-04-25T22:15:33.266Z,32.96
2023-04-25T22:17:59.615Z,32.94
2023-04-25T22:20:26.778Z,32.54
2023-04-25T22:22:53.535Z,32.65
2023-04-25T22:25:21.140Z,32.63
2023-04-25T22:27:48.081Z,32.47
2023-04-25T22:30:14.399Z,32.62
2023-04-25T22:32:40.981Z,32.80
2023-04-25T22:35:07.475Z,32.78
2023-04-25T22:37:35.777Z,32.76
2023-04-25T22:40:05.630Z,32.61
2023-04-25T22:42:36.965Z,32.55
2023-04-25T22:45:04.547Z,32.57
2023-04-25T22:47:30.913Z,32.72
2023-04-25T22:49:57.889Z,32.69
2023-04-25T22:52:24.244Z,32.79
2023-04-25T22:54:50.572Z,32.65
2023-04-25T22:57:16.962Z,32.63
2023-04-25T22:59:43.279Z,32.74
2023-04-25T23:02:10.535Z,32.62
2023-04-25T23:04:37.848Z,32.58
2023-04-25T23:07:04.250Z,32.65
2023-04-25T23:09:30.589Z,32.49
2023-04-25T23:11:57.333Z,32.59
2023-04-25T23:14:24.107Z,32.55
2023-04-25T23:16:50.553Z,32.33
2023-04-25T23:19:16.958Z,32.37
2023-04-25T23:21:43.301Z,32.31
2023-04-25T23:24:09.839Z,32.43
2023-04-25T23:26:36.189Z,32.49
2023-04-25T23:29:02.504Z,32.67
2023-04-25T23:31:29.518Z,32.36
2023-04-25T23:33:56.017Z,32.54
2023-04-25T23:36:22.348Z,32.62
2023-04-25T23:38:50.347Z,32.48
2023-04-25T23:41:16.973Z,32.43
2023-04-25T23:43:43.318Z,32.43
2023-04-25T23:46:09.724Z,32.45
2023-04-25T23:48:36.339Z,32.59
2023-04-25T23:51:02.737Z,32.55
2023-04-25T23:53:29.066Z,32.58
2023-04-25T23:55:55.368Z,32.49
2023-04-25T23:58:21.722Z,32.38
